Dusin Airport


Codes: AYDS/
Name: Dusin Airport
City: Dusin
Country: Papua New Guinea
Elevation: 6300 ft.

Photos at Dusin Airport


   Photos courtesy of SpottingLog. You can add your own sightings and photos by signing up for a free trial today.



No photos found.

Weather at Dusin Airport


Time (UTC)DescriptionTempratureWindCloud coverageVisibilityPressureHumidity
16-Jun-2024 12:00Light Rain12°C2 mph, NE72%10000m1014hPa96%
16-Jun-2024 15:00Scattered Clouds11°C2 mph, NE44%10000m1014hPa95%
16-Jun-2024 18:00Scattered Clouds11°C0 mph, E33%10000m1014hPa93%
16-Jun-2024 21:00Broken Clouds11°C2 mph, SE76%10000m1015hPa90%
17-Jun-2024 00:00Broken Clouds18°C2 mph, SW57%10000m1014hPa65%
17-Jun-2024 03:00Light Rain19°C2 mph, N25%10000m1011hPa72%
17-Jun-2024 06:00Light Rain16°C4 mph, NE53%10000m1011hPa91%
17-Jun-2024 09:00Light Rain12°C4 mph, NE59%9822m1013hPa98%
17-Jun-2024 12:00Light Rain12°C2 mph, NE78%10000m1015hPa98%
17-Jun-2024 15:00Broken Clouds11°C2 mph, E80%10000m1015hPa98%
17-Jun-2024 18:00Broken Clouds10°C2 mph, SE84%10000m1014hPa97%
17-Jun-2024 21:00Overcast Clouds11°C0 mph, E99%10000m1014hPa94%
18-Jun-2024 00:00Overcast Clouds17°C0 mph, S86%10000m1014hPa67%
18-Jun-2024 03:00Light Rain19°C2 mph, N63%10000m1011hPa65%
18-Jun-2024 06:00Light Rain17°C4 mph, NE78%10000m1010hPa83%
18-Jun-2024 09:00Light Rain12°C2 mph, NE57%10000m1012hPa95%
18-Jun-2024 12:00Broken Clouds11°C2 mph, E60%10000m1014hPa94%
18-Jun-2024 15:00Light Rain11°C2 mph, E73%10000m1014hPa94%
18-Jun-2024 18:00Broken Clouds10°C2 mph, E61%10000m1013hPa93%
18-Jun-2024 21:00Overcast Clouds11°C0 mph, E94%10000m1014hPa90%
19-Jun-2024 00:00Overcast Clouds17°C0 mph, SW96%10000m1013hPa65%
19-Jun-2024 03:00Light Rain19°C0 mph, W100%10000m1011hPa63%
19-Jun-2024 06:00Light Rain17°C2 mph, N100%10000m1009hPa76%
19-Jun-2024 09:00Light Rain12°C2 mph, NE100%10000m1012hPa99%
19-Jun-2024 12:00Light Rain11°C0 mph, E100%10000m1014hPa98%
19-Jun-2024 15:00Light Rain11°C0 mph, E100%10000m1013hPa97%
19-Jun-2024 18:00Overcast Clouds10°C0 mph, SE100%10000m1012hPa97%
19-Jun-2024 21:00Overcast Clouds11°C0 mph, S99%10000m1013hPa95%
20-Jun-2024 00:00Light Rain15°C0 mph, SW98%10000m1013hPa79%
20-Jun-2024 03:00Moderate Rain17°C2 mph, NE96%9698m1011hPa83%
20-Jun-2024 06:00Light Rain16°C2 mph, NE79%10000m1010hPa91%
20-Jun-2024 09:00Light Rain12°C2 mph, NE100%10000m1013hPa98%
20-Jun-2024 12:00Light Rain11°C0 mph, E100%10000m1014hPa97%
20-Jun-2024 15:00Overcast Clouds11°C0 mph, SE100%10000m1013hPa97%
20-Jun-2024 18:00Light Rain11°C0 mph, SE100%10000m1012hPa97%
20-Jun-2024 21:00Overcast Clouds11°C0 mph, SE100%10000m1014hPa95%
21-Jun-2024 00:00Light Rain14°C0 mph, SE100%10000m1014hPa89%
21-Jun-2024 03:00Light Rain16°C2 mph, N100%6207m1011hPa88%
21-Jun-2024 06:00Moderate Rain14°C2 mph, N98%7987m1010hPa92%
21-Jun-2024 09:00Moderate Rain12°C2 mph, NE100%6414m1013hPa99%